Time;durP1;ratioP1;P1;durP2;ratioP2;P2;SDS_P1;SDS_P2;PMS_P1;PMS_P2;Temp;Humidity;BMP_temperature;BMP_pressure;BME280_temperature;BME280_humidity;BME280_pressure;Samples;Min_cycle;Max_cycle;Signal;HPM_P1;HPM_P2
2023/07/19 00:00:17;;;;;;;0.50;0.50;;;;;;;;;;5032294;28;20078;-63
2023/07/19 00:02:43;;;;;;;0.47;0.47;;;;;;;;;;5035354;28;20452;-62
2023/07/19 00:05:12;;;;;;;0.50;0.45;;;;;;;;;;5035892;28;20041;-62
2023/07/19 00:07:38;;;;;;;0.32;0.32;;;;;;;;;;5036024;28;20547;-62
2023/07/19 00:10:05;;;;;;;0.40;0.40;;;;;;;;;;5034409;28;20040;-62
2023/07/19 00:12:33;;;;;;;0.30;0.30;;;;;;;;;;5031982;28;20057;-62
2023/07/19 00:14:59;;;;;;;0.43;0.40;;;;;;;;;;5033709;28;20076;-63
2023/07/19 00:17:25;;;;;;;0.73;0.52;;;;;;;;;;5038688;28;20141;-63
2023/07/19 00:19:51;;;;;;;0.82;0.60;;;;;;;;;;5037945;28;20059;-63
2023/07/19 00:22:17;;;;;;;0.40;0.40;;;;;;;;;;5032758;28;20034;-63
2023/07/19 00:24:43;;;;;;;0.50;0.43;;;;;;;;;;5033522;28;20090;-63
2023/07/19 00:27:09;;;;;;;0.50;0.50;;;;;;;;;;5031131;28;20180;-63
2023/07/19 00:29:35;;;;;;;0.63;0.40;;;;;;;;;;5033630;28;20060;-63
2023/07/19 00:32:01;;;;;;;0.30;0.30;;;;;;;;;;5031599;28;20045;-63
2023/07/19 00:34:27;;;;;;;0.43;0.43;;;;;;;;;;5034795;28;20486;-63
2023/07/19 00:36:53;;;;;;;0.40;0.40;;;;;;;;;;5033503;28;20037;-63
2023/07/19 00:39:19;;;;;;;0.32;0.32;;;;;;;;;;5033275;28;20179;-62
2023/07/19 00:41:45;;;;;;;0.35;0.35;;;;;;;;;;5034390;28;20037;-62
2023/07/19 00:44:11;;;;;;;0.50;0.40;;;;;;;;;;5037609;28;20083;-62
2023/07/19 00:46:38;;;;;;;0.50;0.40;;;;;;;;;;5034134;28;20052;-63
2023/07/19 00:49:05;;;;;;;0.65;0.40;;;;;;;;;;5036596;28;20565;-63
2023/07/19 00:51:31;;;;;;;0.60;0.50;;;;;;;;;;5034211;28;20045;-63
2023/07/19 00:53:58;;;;;;;1.02;0.68;;;;;;;;;;5036752;28;20040;-62
2023/07/19 00:56:24;;;;;;;0.60;0.60;;;;;;;;;;5032813;28;20449;-62
2023/07/19 00:58:50;;;;;;;0.45;0.45;;;;;;;;;;5034744;28;20128;-62
2023/07/19 01:01:16;;;;;;;0.40;0.40;;;;;;;;;;5030942;28;20098;-63
2023/07/19 01:03:42;;;;;;;0.43;0.43;;;;;;;;;;5033847;28;20443;-62
2023/07/19 01:06:08;;;;;;;0.70;0.40;;;;;;;;;;5037636;28;20033;-62
2023/07/19 01:08:35;;;;;;;0.50;0.50;;;;;;;;;;5035340;28;20494;-62
2023/07/19 01:11:01;;;;;;;0.32;0.32;;;;;;;;;;5033882;28;20052;-62
2023/07/19 01:13:27;;;;;;;0.50;0.50;;;;;;;;;;5035542;28;20053;-62
2023/07/19 01:15:53;;;;;;;0.88;0.60;;;;;;;;;;5037924;28;20072;-62
2023/07/19 01:18:20;;;;;;;0.40;0.40;;;;;;;;;;5036008;28;20142;-63
2023/07/19 01:20:46;;;;;;;0.50;0.50;;;;;;;;;;5030883;28;20091;-62
2023/07/19 01:23:12;;;;;;;0.30;0.30;;;;;;;;;;5041858;28;20033;-62
2023/07/19 01:25:38;;;;;;;0.47;0.47;;;;;;;;;;5032989;28;20382;-62
2023/07/19 01:28:04;;;;;;;0.45;0.45;;;;;;;;;;5038289;28;20052;-63
2023/07/19 01:30:31;;;;;;;1.00;0.52;;;;;;;;;;5037985;28;20048;-63
2023/07/19 01:32:57;;;;;;;0.57;0.57;;;;;;;;;;5039074;28;20062;-63
2023/07/19 01:35:23;;;;;;;0.45;0.40;;;;;;;;;;5034820;28;20129;-62
2023/07/19 01:37:49;;;;;;;0.40;0.40;;;;;;;;;;5035006;28;20107;-62
2023/07/19 01:40:15;;;;;;;0.35;0.30;;;;;;;;;;5037138;28;20514;-62
2023/07/19 01:42:41;;;;;;;0.63;0.40;;;;;;;;;;5035097;28;20045;-62
2023/07/19 01:45:08;;;;;;;0.20;0.20;;;;;;;;;;5033082;28;20119;-62
2023/07/19 01:47:34;;;;;;;0.30;0.30;;;;;;;;;;5035751;28;20045;-62
2023/07/19 01:50:00;;;;;;;0.22;0.22;;;;;;;;;;5037595;28;20045;-63
2023/07/19 01:52:26;;;;;;;0.40;0.40;;;;;;;;;;5031918;28;20067;-63
2023/07/19 01:54:52;;;;;;;0.30;0.30;;;;;;;;;;5031572;28;20383;-62
2023/07/19 01:57:18;;;;;;;0.38;0.30;;;;;;;;;;5036697;28;20427;-62
2023/07/19 01:59:44;;;;;;;0.52;0.52;;;;;;;;;;5035395;28;20052;-62
2023/07/19 02:02:10;;;;;;;0.40;0.30;;;;;;;;;;5032354;28;20422;-62
2023/07/19 02:04:36;;;;;;;0.85;0.45;;;;;;;;;;5036709;28;20045;-62
2023/07/19 02:07:02;;;;;;;0.45;0.45;;;;;;;;;;5030976;28;20048;-63
2023/07/19 02:09:28;;;;;;;0.75;0.40;;;;;;;;;;5035194;28;20041;-63
2023/07/19 02:11:54;;;;;;;0.30;0.30;;;;;;;;;;5028846;28;20068;-63
2023/07/19 02:14:20;;;;;;;0.40;0.40;;;;;;;;;;5035498;28;20050;-62
2023/07/19 02:16:46;;;;;;;0.40;0.40;;;;;;;;;;5031533;28;20045;-63
2023/07/19 02:19:12;;;;;;;0.20;0.20;;;;;;;;;;5032046;28;20221;-63
2023/07/19 02:21:38;;;;;;;0.22;0.22;;;;;;;;;;5030277;28;20117;-62
2023/07/19 02:24:05;;;;;;;0.40;0.40;;;;;;;;;;5030003;28;20590;-62
2023/07/19 02:26:31;;;;;;;0.30;0.30;;;;;;;;;;5032283;28;20077;-62
2023/07/19 02:28:57;;;;;;;0.40;0.40;;;;;;;;;;5031493;28;20069;-62
2023/07/19 02:31:23;;;;;;;0.70;0.50;;;;;;;;;;5033522;28;20073;-63
2023/07/19 02:33:49;;;;;;;1.17;0.40;;;;;;;;;;5038234;28;20152;-63
2023/07/19 02:36:16;;;;;;;1.27;0.60;;;;;;;;;;5037147;28;20041;-63
2023/07/19 02:38:44;;;;;;;0.63;0.63;;;;;;;;;;5041441;28;20045;-63
2023/07/19 02:41:10;;;;;;;0.50;0.50;;;;;;;;;;5034428;28;20045;-63
2023/07/19 02:43:36;;;;;;;0.60;0.60;;;;;;;;;;5035171;28;20080;-62
2023/07/19 02:46:02;;;;;;;0.88;0.50;;;;;;;;;;5035187;28;20474;-62
2023/07/19 02:48:28;;;;;;;0.40;0.40;;;;;;;;;;5036986;28;20041;-63
2023/07/19 02:50:54;;;;;;;0.40;0.40;;;;;;;;;;5034928;28;20048;-62
2023/07/19 02:53:20;;;;;;;0.75;0.52;;;;;;;;;;5036551;28;20037;-62
2023/07/19 02:55:46;;;;;;;0.30;0.30;;;;;;;;;;5035080;28;20073;-63
2023/07/19 02:58:15;;;;;;;0.40;0.40;;;;;;;;;;5035882;28;20049;-62
2023/07/19 03:00:43;;;;;;;0.45;0.45;;;;;;;;;;5035847;28;20038;-62
2023/07/19 03:03:10;;;;;;;0.50;0.50;;;;;;;;;;5039169;28;20037;-62
2023/07/19 03:05:40;;;;;;;0.60;0.60;;;;;;;;;;5036845;28;20489;-62
2023/07/19 03:08:09;;;;;;;0.75;0.75;;;;;;;;;;5038422;28;20045;-62
2023/07/19 03:10:35;;;;;;;1.35;0.75;;;;;;;;;;5035274;28;20046;-63
2023/07/19 03:13:01;;;;;;;1.10;0.90;;;;;;;;;;5038223;28;20054;-62
2023/07/19 03:15:32;;;;;;;0.55;0.45;;;;;;;;;;5035708;28;20051;-62
2023/07/19 03:17:59;;;;;;;0.68;0.68;;;;;;;;;;5039048;28;20029;-62
2023/07/19 03:20:25;;;;;;;0.63;0.63;;;;;;;;;;5041386;28;20040;-62
2023/07/19 03:22:51;;;;;;;0.45;0.40;;;;;;;;;;5038737;28;20044;-62
2023/07/19 03:25:17;;;;;;;0.50;0.50;;;;;;;;;;5033737;28;20528;-62
2023/07/19 03:27:43;;;;;;;0.47;0.47;;;;;;;;;;5033725;28;20541;-63
2023/07/19 03:30:10;;;;;;;0.75;0.60;;;;;;;;;;5035782;28;20048;-63
2023/07/19 03:32:36;;;;;;;0.77;0.55;;;;;;;;;;5036552;28;20033;-62
2023/07/19 03:35:03;;;;;;;0.50;0.50;;;;;;;;;;5038573;28;20120;-62
2023/07/19 03:37:30;;;;;;;0.82;0.60;;;;;;;;;;5036744;28;20047;-62
2023/07/19 03:39:56;;;;;;;0.63;0.63;;;;;;;;;;5033041;28;20619;-62
2023/07/19 03:42:22;;;;;;;0.75;0.73;;;;;;;;;;5031231;28;20048;-63
2023/07/19 03:44:48;;;;;;;0.63;0.63;;;;;;;;;;5036331;28;20041;-63
2023/07/19 03:47:14;;;;;;;0.68;0.65;;;;;;;;;;5040541;28;20084;-62
2023/07/19 03:49:40;;;;;;;0.60;0.60;;;;;;;;;;5029143;28;20044;-62
2023/07/19 03:52:06;;;;;;;0.70;0.68;;;;;;;;;;5035764;28;20048;-62
2023/07/19 03:54:32;;;;;;;0.60;0.60;;;;;;;;;;5033150;28;20037;-62
2023/07/19 03:56:58;;;;;;;1.08;0.90;;;;;;;;;;5027867;28;20033;-62
2023/07/19 03:59:24;;;;;;;1.23;0.80;;;;;;;;;;5037748;28;20489;-63
2023/07/19 04:01:50;;;;;;;0.80;0.80;;;;;;;;;;5038141;28;20056;-63
2023/07/19 04:04:16;;;;;;;1.00;1.00;;;;;;;;;;5032608;28;20033;-62
2023/07/19 04:06:43;;;;;;;1.10;0.95;;;;;;;;;;5034296;28;20099;-62
2023/07/19 04:09:09;;;;;;;0.95;0.95;;;;;;;;;;5032168;28;20056;-62
2023/07/19 04:11:35;;;;;;;0.70;0.70;;;;;;;;;;5032664;28;20146;-62
2023/07/19 04:14:01;;;;;;;1.00;1.00;;;;;;;;;;5035880;28;20442;-62
2023/07/19 04:16:27;;;;;;;0.85;0.65;;;;;;;;;;5033168;28;20085;-63
2023/07/19 04:18:53;;;;;;;1.13;1.02;;;;;;;;;;5035149;28;20091;-62
2023/07/19 04:21:19;;;;;;;1.33;1.00;;;;;;;;;;5035452;28;20118;-62
2023/07/19 04:23:45;;;;;;;1.35;1.25;;;;;;;;;;5036574;28;20379;-62
2023/07/19 04:26:11;;;;;;;0.63;0.63;;;;;;;;;;5034450;28;20644;-62
2023/07/19 04:28:37;;;;;;;2.22;1.38;;;;;;;;;;5034604;28;20703;-63
2023/07/19 04:31:03;;;;;;;1.40;1.02;;;;;;;;;;5037813;28;20045;-62
2023/07/19 04:33:30;;;;;;;0.40;0.40;;;;;;;;;;5036118;28;20178;-63
2023/07/19 04:35:57;;;;;;;0.65;0.65;;;;;;;;;;5034831;28;20045;-62
2023/07/19 04:38:23;;;;;;;0.80;0.60;;;;;;;;;;5032456;28;20359;-63
2023/07/19 04:40:49;;;;;;;0.50;0.50;;;;;;;;;;5031689;28;20049;-63
2023/07/19 04:43:15;;;;;;;0.40;0.40;;;;;;;;;;5036021;28;20041;-62
2023/07/19 04:45:44;;;;;;;0.80;0.80;;;;;;;;;;5033990;28;20406;-62
2023/07/19 04:48:10;;;;;;;0.93;0.75;;;;;;;;;;5038137;28;20080;-63
2023/07/19 04:50:37;;;;;;;0.47;0.43;;;;;;;;;;5031736;28;20049;-62
2023/07/19 04:53:03;;;;;;;0.40;0.40;;;;;;;;;;5040072;28;20041;-62
2023/07/19 04:55:29;;;;;;;0.80;0.60;;;;;;;;;;5034718;28;20037;-62
2023/07/19 04:57:55;;;;;;;0.50;0.50;;;;;;;;;;5036116;28;20041;-62
2023/07/19 05:00:22;;;;;;;0.35;0.35;;;;;;;;;;5034992;28;20045;-62
2023/07/19 05:02:48;;;;;;;0.50;0.50;;;;;;;;;;5032567;28;20041;-62
2023/07/19 05:05:14;;;;;;;0.50;0.45;;;;;;;;;;5036898;28;20048;-62
2023/07/19 05:07:40;;;;;;;0.30;0.30;;;;;;;;;;5036640;28;20033;-63
2023/07/19 05:10:07;;;;;;;0.70;0.47;;;;;;;;;;5035614;28;20029;-63
2023/07/19 05:12:33;;;;;;;0.50;0.40;;;;;;;;;;5032315;28;20168;-63
2023/07/19 05:15:00;;;;;;;0.40;0.40;;;;;;;;;;5035682;28;20048;-62
2023/07/19 05:17:26;;;;;;;0.68;0.35;;;;;;;;;;5031759;28;20045;-62
2023/07/19 05:19:52;;;;;;;0.32;0.30;;;;;;;;;;5028982;28;20033;-62
2023/07/19 05:22:18;;;;;;;0.60;0.60;;;;;;;;;;5038375;28;20036;-63
2023/07/19 05:24:44;;;;;;;3.80;1.15;;;;;;;;;;5033340;28;20033;-63
2023/07/19 05:27:15;;;;;;;0.70;0.68;;;;;;;;;;5032327;28;20037;-63
2023/07/19 05:29:41;;;;;;;1.10;0.97;;;;;;;;;;5031782;28;20044;-62
2023/07/19 05:32:08;;;;;;;1.17;0.70;;;;;;;;;;5032383;28;20372;-62
2023/07/19 05:34:33;;;;;;;0.50;0.50;;;;;;;;;;5032091;28;20052;-62
2023/07/19 05:37:00;;;;;;;0.82;0.55;;;;;;;;;;5033641;28;20033;-62
2023/07/19 05:39:26;;;;;;;0.73;0.32;;;;;;;;;;5036101;28;20049;-63
2023/07/19 05:41:52;;;;;;;0.35;0.35;;;;;;;;;;5035349;28;20041;-63
2023/07/19 05:44:18;;;;;;;0.35;0.32;;;;;;;;;;5033090;28;20541;-63
2023/07/19 05:46:44;;;;;;;0.30;0.30;;;;;;;;;;5035614;28;20037;-62
2023/07/19 05:49:10;;;;;;;0.30;0.30;;;;;;;;;;5035989;28;20040;-63
2023/07/19 05:51:36;;;;;;;0.35;0.20;;;;;;;;;;5031001;28;20051;-63
2023/07/19 05:54:03;;;;;;;0.30;0.30;;;;;;;;;;5032261;28;20490;-62
2023/07/19 05:56:29;;;;;;;0.95;0.63;;;;;;;;;;5030979;28;20053;-63
2023/07/19 05:58:55;;;;;;;0.80;0.73;;;;;;;;;;5030974;28;20045;-59
2023/07/19 06:01:21;;;;;;;1.10;1.00;;;;;;;;;;5029988;28;20052;-56
2023/07/19 06:03:48;;;;;;;0.73;0.73;;;;;;;;;;5033647;28;20045;-56
2023/07/19 06:06:15;;;;;;;2.50;0.90;;;;;;;;;;5040544;28;20029;-62
2023/07/19 06:08:41;;;;;;;1.90;1.00;;;;;;;;;;5034664;28;20037;-57
2023/07/19 06:11:07;;;;;;;1.75;0.90;;;;;;;;;;5037128;28;20053;-62
2023/07/19 06:13:33;;;;;;;1.02;0.75;;;;;;;;;;5034106;28;20033;-67
2023/07/19 06:15:59;;;;;;;0.82;0.80;;;;;;;;;;5033822;28;20123;-63
2023/07/19 06:18:25;;;;;;;0.88;0.60;;;;;;;;;;5042513;28;20037;-62
2023/07/19 06:20:51;;;;;;;0.40;0.40;;;;;;;;;;5037153;28;20119;-62
2023/07/19 06:23:17;;;;;;;0.30;0.30;;;;;;;;;;5035767;28;20057;-62
2023/07/19 06:25:47;;;;;;;0.35;0.30;;;;;;;;;;5041580;28;20051;-62
2023/07/19 06:28:13;;;;;;;0.70;0.30;;;;;;;;;;5033015;28;20374;-63
2023/07/19 06:30:39;;;;;;;0.82;0.50;;;;;;;;;;5036300;28;20049;-62
2023/07/19 06:33:05;;;;;;;0.80;0.40;;;;;;;;;;5037927;28;20033;-62
2023/07/19 06:35:32;;;;;;;0.57;0.22;;;;;;;;;;5034612;28;20562;-62
2023/07/19 06:37:58;;;;;;;0.25;0.20;;;;;;;;;;5038494;28;20098;-62
2023/07/19 06:40:26;;;;;;;0.63;0.38;;;;;;;;;;5035150;28;20033;-62
2023/07/19 06:42:52;;;;;;;1.45;0.20;;;;;;;;;;5031434;28;20041;-62
2023/07/19 06:45:18;;;;;;;0.40;0.40;;;;;;;;;;5048027;28;20310;-62
2023/07/19 06:47:44;;;;;;;1.45;0.52;;;;;;;;;;5031311;28;20561;-62
2023/07/19 06:50:10;;;;;;;0.22;0.22;;;;;;;;;;5042893;28;20715;-62
2023/07/19 06:52:37;;;;;;;0.40;0.30;;;;;;;;;;5046915;28;20076;-62
2023/07/19 06:55:03;;;;;;;0.30;0.30;;;;;;;;;;5045964;28;20283;-62
2023/07/19 06:57:29;;;;;;;1.42;0.60;;;;;;;;;;5026916;28;20378;-61
2023/07/19 06:59:55;;;;;;;0.38;0.38;;;;;;;;;;5040148;28;20504;-62
2023/07/19 07:02:21;;;;;;;0.30;0.30;;;;;;;;;;5040940;28;20650;-62
2023/07/19 07:04:48;;;;;;;0.38;0.20;;;;;;;;;;5036824;28;20041;-62
2023/07/19 07:07:18;;;;;;;0.30;0.30;;;;;;;;;;5046006;28;20541;-62
2023/07/19 07:09:44;;;;;;;0.30;0.22;;;;;;;;;;5046082;28;20083;-62
2023/07/19 07:12:10;;;;;;;0.30;0.30;;;;;;;;;;5045424;28;20425;-62
2023/07/19 07:14:37;;;;;;;0.13;0.13;;;;;;;;;;5046511;28;20557;-61
2023/07/19 07:17:03;;;;;;;0.15;0.15;;;;;;;;;;5043656;28;20037;-63
2023/07/19 07:19:29;;;;;;;0.70;0.40;;;;;;;;;;5036810;28;20049;-63
2023/07/19 07:21:55;;;;;;;0.40;0.30;;;;;;;;;;5032628;28;20045;-63
2023/07/19 07:24:21;;;;;;;0.35;0.30;;;;;;;;;;5032427;28;20037;-63
2023/07/19 07:26:47;;;;;;;0.77;0.40;;;;;;;;;;5037669;28;20091;-62
2023/07/19 07:29:13;;;;;;;0.55;0.28;;;;;;;;;;5045821;28;20236;-62
2023/07/19 07:31:39;;;;;;;0.20;0.20;;;;;;;;;;5034873;28;20378;-62
2023/07/19 07:34:07;;;;;;;0.40;0.30;;;;;;;;;;5044231;28;20041;-63
2023/07/19 07:36:33;;;;;;;0.75;0.28;;;;;;;;;;5040096;28;20199;-62
2023/07/19 07:38:59;;;;;;;0.20;0.20;;;;;;;;;;5034506;28;20381;-62
2023/07/19 07:41:25;;;;;;;0.30;0.13;;;;;;;;;;5040241;28;20497;-62
2023/07/19 07:43:51;;;;;;;0.47;0.30;;;;;;;;;;5039969;28;20341;-62
2023/07/19 07:46:17;;;;;;;0.88;0.20;;;;;;;;;;5040428;28;20080;-62
2023/07/19 07:48:43;;;;;;;0.45;0.20;;;;;;;;;;5037921;28;20493;-62
2023/07/19 07:51:09;;;;;;;2.03;0.20;;;;;;;;;;5042943;28;20043;-62
2023/07/19 07:53:35;;;;;;;0.28;0.28;;;;;;;;;;5035673;28;20037;-62
2023/07/19 07:56:02;;;;;;;0.90;0.57;;;;;;;;;;5043544;28;20037;-62
2023/07/19 07:58:28;;;;;;;1.48;0.50;;;;;;;;;;5041388;28;20033;-62
2023/07/19 08:00:54;;;;;;;0.60;0.50;;;;;;;;;;5041166;28;20043;-62
2023/07/19 08:03:20;;;;;;;1.08;0.55;;;;;;;;;;5045459;28;20051;-62
2023/07/19 08:05:46;;;;;;;1.42;0.40;;;;;;;;;;5042551;28;20041;-63
2023/07/19 08:08:12;;;;;;;1.70;0.50;;;;;;;;;;5038869;28;20037;-62
2023/07/19 08:10:39;;;;;;;0.60;0.50;;;;;;;;;;5041627;28;20118;-62
2023/07/19 08:13:08;;;;;;;1.10;0.43;;;;;;;;;;5040675;28;20076;-62
2023/07/19 08:15:35;;;;;;;0.88;0.60;;;;;;;;;;5041209;28;20382;-62
2023/07/19 08:18:01;;;;;;;0.70;0.40;;;;;;;;;;5045533;28;20612;-62
2023/07/19 08:20:27;;;;;;;0.90;0.50;;;;;;;;;;5040017;28;20050;-62
2023/07/19 08:22:53;;;;;;;0.30;0.30;;;;;;;;;;5036545;28;20044;-63
2023/07/19 08:25:20;;;;;;;0.77;0.40;;;;;;;;;;5036405;28;20382;-62
2023/07/19 08:27:46;;;;;;;1.50;0.68;;;;;;;;;;5031793;28;20487;-62
2023/07/19 08:30:15;;;;;;;0.73;0.50;;;;;;;;;;5033729;28;20042;-62
2023/07/19 08:32:48;;;;;;;1.20;0.43;;;;;;;;;;5036435;28;20051;-62
2023/07/19 08:35:17;;;;;;;1.35;0.60;;;;;;;;;;5037648;28;20382;-62
2023/07/19 08:37:44;;;;;;;0.68;0.57;;;;;;;;;;5036120;28;20049;-62
2023/07/19 08:40:12;;;;;;;0.52;0.40;;;;;;;;;;5036664;28;20087;-60
2023/07/19 08:42:38;;;;;;;0.63;0.30;;;;;;;;;;5035024;28;20107;-61
2023/07/19 08:45:06;;;;;;;0.70;0.40;;;;;;;;;;5027530;28;20132;-61
2023/07/19 08:47:32;;;;;;;0.25;0.20;;;;;;;;;;5037629;28;20049;-61
2023/07/19 08:49:59;;;;;;;0.30;0.20;;;;;;;;;;5038694;28;20493;-61
2023/07/19 08:52:28;;;;;;;0.35;0.20;;;;;;;;;;5040806;28;20041;-61
2023/07/19 08:54:54;;;;;;;0.45;0.30;;;;;;;;;;5040104;28;20055;-61
2023/07/19 08:57:20;;;;;;;0.20;0.20;;;;;;;;;;5036095;28;20041;-61
2023/07/19 08:59:46;;;;;;;0.10;0.10;;;;;;;;;;5039573;28;20508;-61
2023/07/19 09:02:12;;;;;;;0.10;0.10;;;;;;;;;;5039521;28;20034;-61
2023/07/19 09:04:39;;;;;;;0.20;0.17;;;;;;;;;;5040234;28;20098;-61
2023/07/19 09:07:05;;;;;;;0.20;0.20;;;;;;;;;;5039504;28;20033;-61
2023/07/19 09:09:32;;;;;;;0.10;0.10;;;;;;;;;;5037216;28;20079;-61
2023/07/19 09:11:58;;;;;;;0.20;0.20;;;;;;;;;;5042890;28;20049;-61
2023/07/19 09:14:35;;;;;;;0.32;0.10;;;;;;;;;;5044869;28;20055;-60
2023/07/19 09:17:02;;;;;;;0.10;0.10;;;;;;;;;;5043707;28;20045;-61
2023/07/19 09:19:28;;;;;;;0.93;0.38;;;;;;;;;;5041652;28;20106;-61
2023/07/19 09:21:54;;;;;;;0.38;0.20;;;;;;;;;;5039572;28;20045;-61
2023/07/19 09:24:20;;;;;;;0.10;0.10;;;;;;;;;;5034393;28;20048;-61
2023/07/19 09:26:53;;;;;;;0.10;0.10;;;;;;;;;;5036225;28;20041;-61
2023/07/19 09:29:20;;;;;;;0.20;0.10;;;;;;;;;;5038045;28;20103;-60
2023/07/19 09:31:53;;;;;;;0.20;0.20;;;;;;;;;;5042113;28;20438;-60
2023/07/19 09:34:19;;;;;;;0.30;0.20;;;;;;;;;;5044258;28;20352;-61
2023/07/19 09:36:45;;;;;;;0.20;0.20;;;;;;;;;;5044672;28;20451;-61
2023/07/19 09:39:11;;;;;;;0.75;0.40;;;;;;;;;;5043763;28;20067;-61
2023/07/19 09:41:37;;;;;;;0.20;0.15;;;;;;;;;;5042012;28;20051;-61
2023/07/19 09:44:09;;;;;;;0.32;0.10;;;;;;;;;;5040214;28;20080;-61
2023/07/19 09:46:36;;;;;;;0.20;0.10;;;;;;;;;;5044338;28;20090;-61
2023/07/19 09:49:02;;;;;;;0.47;0.20;;;;;;;;;;5044297;28;20120;-61
2023/07/19 09:51:30;;;;;;;0.28;0.28;;;;;;;;;;5039223;28;20071;-61
2023/07/19 09:53:57;;;;;;;0.70;0.20;;;;;;;;;;5041537;28;20500;-61
2023/07/19 09:56:23;;;;;;;0.32;0.20;;;;;;;;;;5043967;28;20491;-61
2023/07/19 09:58:50;;;;;;;0.47;0.30;;;;;;;;;;5040661;28;20528;-61
2023/07/19 10:01:16;;;;;;;0.22;0.20;;;;;;;;;;5042274;28;20044;-61
2023/07/19 10:03:44;;;;;;;0.30;0.20;;;;;;;;;;5040636;28;20115;-61
2023/07/19 10:06:10;;;;;;;0.52;0.28;;;;;;;;;;5038936;28;20079;-62
2023/07/19 10:08:36;;;;;;;0.73;0.22;;;;;;;;;;5042370;28;20028;-62
2023/07/19 10:11:03;;;;;;;0.30;0.30;;;;;;;;;;5038312;28;20490;-61
2023/07/19 10:13:32;;;;;;;0.20;0.20;;;;;;;;;;5039145;28;20203;-61
2023/07/19 10:15:58;;;;;;;0.20;0.20;;;;;;;;;;5040955;28;20517;-61
2023/07/19 10:18:24;;;;;;;0.20;0.20;;;;;;;;;;5024526;28;20084;-61
2023/07/19 10:21:00;;;;;;;0.55;0.20;;;;;;;;;;5024215;28;20049;-61
2023/07/19 10:23:26;;;;;;;0.15;0.10;;;;;;;;;;5024448;28;20359;-61
2023/07/19 10:25:52;;;;;;;0.40;0.20;;;;;;;;;;5024403;28;20048;-61
2023/07/19 10:28:29;;;;;;;0.20;0.10;;;;;;;;;;5023575;28;20117;-61
2023/07/19 10:30:56;;;;;;;0.60;0.40;;;;;;;;;;5024271;28;20512;-62
2023/07/19 10:33:29;;;;;;;0.32;0.20;;;;;;;;;;5024227;28;20068;-61
2023/07/19 10:35:57;;;;;;;0.50;0.20;;;;;;;;;;5040550;28;20132;-61
2023/07/19 10:38:23;;;;;;;0.13;0.10;;;;;;;;;;5044087;28;20056;-61
2023/07/19 10:41:02;;;;;;;0.70;0.20;;;;;;;;;;5043467;28;20041;-61
2023/07/19 10:43:30;;;;;;;0.98;0.40;;;;;;;;;;5044221;28;20045;-62
2023/07/19 10:45:59;;;;;;;0.30;0.20;;;;;;;;;;5044304;28;20493;-62
2023/07/19 10:48:25;;;;;;;0.17;0.17;;;;;;;;;;5042126;28;20049;-62
2023/07/19 10:50:51;;;;;;;0.40;0.30;;;;;;;;;;5036817;28;20053;-61
2023/07/19 10:53:18;;;;;;;0.10;0.10;;;;;;;;;;5046944;28;20041;-62
2023/07/19 10:55:44;;;;;;;0.30;0.20;;;;;;;;;;5046854;28;20041;-61
2023/07/19 10:58:11;;;;;;;0.13;0.10;;;;;;;;;;5045861;28;20121;-61
2023/07/19 11:00:43;;;;;;;0.60;0.28;;;;;;;;;;5047857;28;20063;-61
2023/07/19 11:03:12;;;;;;;0.63;0.20;;;;;;;;;;5046989;28;20107;-62
2023/07/19 11:05:48;;;;;;;0.38;0.20;;;;;;;;;;5063630;28;20036;-62
2023/07/19 11:08:24;;;;;;;0.20;0.15;;;;;;;;;;5067097;28;20433;-62
2023/07/19 11:10:50;;;;;;;0.38;0.20;;;;;;;;;;5052774;28;20452;-62
2023/07/19 11:13:21;;;;;;;0.47;0.20;;;;;;;;;;5042541;28;20143;-62
2023/07/19 11:15:48;;;;;;;0.32;0.28;;;;;;;;;;5045281;28;20045;-62
2023/07/19 11:18:23;;;;;;;0.50;0.30;;;;;;;;;;5045191;28;20094;-62
2023/07/19 11:20:49;;;;;;;0.40;0.20;;;;;;;;;;5037535;28;20128;-62
2023/07/19 11:23:15;;;;;;;0.90;0.32;;;;;;;;;;5038995;28;20041;-62
2023/07/19 11:25:41;;;;;;;0.25;0.20;;;;;;;;;;5040877;28;20041;-61
2023/07/19 11:28:07;;;;;;;0.60;0.30;;;;;;;;;;5044847;28;20047;-62
2023/07/19 11:30:37;;;;;;;0.40;0.20;;;;;;;;;;5040892;28;20041;-62
2023/07/19 11:33:07;;;;;;;1.48;0.30;;;;;;;;;;5045252;28;20044;-62
2023/07/19 11:35:33;;;;;;;0.95;0.30;;;;;;;;;;5038554;28;20450;-62
2023/07/19 11:37:59;;;;;;;0.20;0.10;;;;;;;;;;5044224;28;20120;-62
2023/07/19 11:40:26;;;;;;;0.30;0.30;;;;;;;;;;5031472;28;20037;-62
2023/07/19 11:42:57;;;;;;;0.22;0.20;;;;;;;;;;5037851;28;20138;-62
2023/07/19 11:45:25;;;;;;;0.28;0.20;;;;;;;;;;5039501;28;20047;-61
2023/07/19 11:47:52;;;;;;;0.65;0.32;;;;;;;;;;5043200;28;20053;-61
2023/07/19 11:50:20;;;;;;;0.70;0.20;;;;;;;;;;5035916;28;20034;-61
2023/07/19 11:52:47;;;;;;;0.22;0.20;;;;;;;;;;5033948;28;20045;-62
2023/07/19 11:55:16;;;;;;;0.35;0.20;;;;;;;;;;5043235;28;20143;-62
2023/07/19 11:57:43;;;;;;;0.25;0.20;;;;;;;;;;5039009;28;20042;-62
2023/07/19 12:00:10;;;;;;;0.40;0.20;;;;;;;;;;5035478;28;20041;-62
2023/07/19 12:02:37;;;;;;;0.22;0.20;;;;;;;;;;5041781;28;20043;-62
2023/07/19 12:05:04;;;;;;;0.20;0.20;;;;;;;;;;5037276;28;20037;-62
2023/07/19 12:07:31;;;;;;;0.28;0.20;;;;;;;;;;5045167;28;20401;-62
2023/07/19 12:09:57;;;;;;;0.20;0.20;;;;;;;;;;5039582;28;20063;-62
2023/07/19 12:12:23;;;;;;;0.30;0.20;;;;;;;;;;5037052;28;20053;-62
2023/07/19 12:14:49;;;;;;;0.50;0.20;;;;;;;;;;5034030;28;20054;-62
2023/07/19 12:17:15;;;;;;;0.28;0.28;;;;;;;;;;5035151;28;20077;-62
2023/07/19 12:19:41;;;;;;;0.25;0.10;;;;;;;;;;5038261;28;20072;-62
2023/07/19 12:22:07;;;;;;;0.10;0.10;;;;;;;;;;5040141;28;20509;-62
2023/07/19 12:24:33;;;;;;;0.45;0.20;;;;;;;;;;5041092;28;20238;-62
2023/07/19 12:26:59;;;;;;;0.50;0.40;;;;;;;;;;5035156;28;20036;-62
2023/07/19 12:29:26;;;;;;;0.45;0.10;;;;;;;;;;5039583;28;20116;-62
2023/07/19 12:31:52;;;;;;;0.10;0.10;;;;;;;;;;5038032;28;20055;-61
2023/07/19 12:34:20;;;;;;;0.10;0.10;;;;;;;;;;5038568;28;20048;-61
2023/07/19 12:36:47;;;;;;;0.20;0.20;;;;;;;;;;5040829;28;20045;-61
2023/07/19 12:39:14;;;;;;;0.20;0.20;;;;;;;;;;5037368;28;20128;-61
2023/07/19 12:41:40;;;;;;;0.57;0.30;;;;;;;;;;5036663;28;20107;-62
2023/07/19 12:44:06;;;;;;;0.32;0.20;;;;;;;;;;5041789;28;20040;-62
2023/07/19 12:46:32;;;;;;;0.20;0.15;;;;;;;;;;5039795;28;20094;-62
2023/07/19 12:48:58;;;;;;;0.28;0.20;;;;;;;;;;5039424;28;20044;-61
2023/07/19 12:51:25;;;;;;;0.93;0.30;;;;;;;;;;5040864;28;20043;-61
2023/07/19 12:53:51;;;;;;;0.30;0.25;;;;;;;;;;5035803;28;20040;-62
2023/07/19 12:56:17;;;;;;;0.57;0.30;;;;;;;;;;5041416;28;20029;-61
2023/07/19 12:58:43;;;;;;;0.50;0.30;;;;;;;;;;5041391;28;20534;-62
2023/07/19 13:01:09;;;;;;;0.60;0.20;;;;;;;;;;5035188;28;20607;-61
2023/07/19 13:03:35;;;;;;;0.30;0.20;;;;;;;;;;5038905;28;20077;-62
2023/07/19 13:06:01;;;;;;;0.20;0.15;;;;;;;;;;5039080;28;20079;-61
2023/07/19 13:08:27;;;;;;;0.10;0.10;;;;;;;;;;5044113;28;20047;-62
2023/07/19 13:10:53;;;;;;;0.30;0.20;;;;;;;;;;5039875;28;20049;-62
2023/07/19 13:13:19;;;;;;;0.40;0.13;;;;;;;;;;5042361;28;20059;-62
2023/07/19 13:15:45;;;;;;;0.50;0.30;;;;;;;;;;5038593;28;20061;-62
2023/07/19 13:18:11;;;;;;;0.75;0.20;;;;;;;;;;5037791;28;20037;-62
2023/07/19 13:20:38;;;;;;;0.40;0.20;;;;;;;;;;5033276;28;20037;-62
2023/07/19 13:23:04;;;;;;;0.50;0.30;;;;;;;;;;5037572;28;20172;-62
2023/07/19 13:25:30;;;;;;;0.17;0.17;;;;;;;;;;5040293;28;20432;-62
2023/07/19 13:27:56;;;;;;;0.17;0.15;;;;;;;;;;5035558;28;20132;-62
2023/07/19 13:30:22;;;;;;;0.40;0.15;;;;;;;;;;5035611;28;20581;-62
2023/07/19 13:32:48;;;;;;;0.65;0.55;;;;;;;;;;5037116;28;20037;-62
2023/07/19 13:35:14;;;;;;;0.55;0.17;;;;;;;;;;5034284;28;20106;-62
2023/07/19 13:37:40;;;;;;;0.30;0.28;;;;;;;;;;5033908;28;20032;-62
2023/07/19 13:40:06;;;;;;;0.20;0.20;;;;;;;;;;5036816;28;20048;-62
2023/07/19 13:42:35;;;;;;;0.20;0.10;;;;;;;;;;5035897;28;20115;-62
2023/07/19 13:45:01;;;;;;;0.98;0.30;;;;;;;;;;5036676;28;20059;-62
2023/07/19 13:47:30;;;;;;;0.47;0.35;;;;;;;;;;5036379;28;20050;-62
2023/07/19 13:49:56;;;;;;;0.40;0.30;;;;;;;;;;5031351;28;20405;-62
2023/07/19 13:52:22;;;;;;;0.40;0.20;;;;;;;;;;5031053;28;20067;-62
2023/07/19 13:54:49;;;;;;;0.10;0.10;;;;;;;;;;5032820;28;20118;-62
2023/07/19 13:57:15;;;;;;;0.20;0.20;;;;;;;;;;5036836;28;20318;-62
2023/07/19 13:59:41;;;;;;;0.30;0.20;;;;;;;;;;5037105;28;20040;-62
2023/07/19 14:02:08;;;;;;;0.10;0.10;;;;;;;;;;5039634;28;20503;-62
2023/07/19 14:04:34;;;;;;;0.10;0.10;;;;;;;;;;5032536;28;20040;-62
2023/07/19 14:07:00;;;;;;;0.25;0.20;;;;;;;;;;5038198;28;20052;-61
2023/07/19 14:09:26;;;;;;;0.10;0.10;;;;;;;;;;5036807;28;20481;-61
2023/07/19 14:11:52;;;;;;;0.20;0.20;;;;;;;;;;5035574;28;20087;-61
2023/07/19 14:14:18;;;;;;;0.47;0.20;;;;;;;;;;5041321;28;20051;-61
2023/07/19 14:16:44;;;;;;;0.10;0.10;;;;;;;;;;5038491;28;20084;-61
2023/07/19 14:19:10;;;;;;;0.10;0.10;;;;;;;;;;5040547;28;20120;-62
2023/07/19 14:21:36;;;;;;;0.25;0.10;;;;;;;;;;5033262;28;20769;-62
2023/07/19 14:24:02;;;;;;;0.10;0.10;;;;;;;;;;5031775;28;20049;-61
2023/07/19 14:26:28;;;;;;;0.20;0.10;;;;;;;;;;5037862;28;20024;-61
2023/07/19 14:28:55;;;;;;;0.30;0.10;;;;;;;;;;5041358;28;20493;-61
2023/07/19 14:31:21;;;;;;;0.65;0.10;;;;;;;;;;5042915;28;20045;-61
2023/07/19 14:33:47;;;;;;;0.10;0.10;;;;;;;;;;5041057;28;20190;-61
2023/07/19 14:36:14;;;;;;;0.20;0.10;;;;;;;;;;5043616;28;20037;-61
2023/07/19 14:38:40;;;;;;;0.03;0.03;;;;;;;;;;5039283;28;20377;-60